Monday, November 20, 2017, 2:30 AM EST
Back to Local

KDXR, Danbury Municipal Airport

Location: Danbury, CT, United States Lat: 41.367
Local Time: 2:30 AM EST ( 7:30 GMT) Lon: -73.483
Time Zone: US/Eastern Elev: 459 ft

Show me the last for .
Show Decoded

2017-11-20 01:53 METAR KDXR 200653Z AUTO 28009G17KT 240V310 10SM CLR 03/M07 A2980 RMK AO2 SLP091
                 T00281067 =
2017-11-20 00:53 METAR KDXR 200553Z AUTO 27009KT 10SM CLR 03/M04 A2977 RMK AO2 SLP084 T00281044
                 10056 20028 53018 =
2017-11-19 23:53 METAR KDXR 200453Z AUTO 28007G17KT 240V310 10SM CLR 03/M03 A2975 RMK AO2 SLP075
                 T00331033 401500033 =
2017-11-19 22:53 METAR KDXR 200353Z AUTO 27008G16KT 10SM FEW075 04/M03 A2973 RMK AO2 SLP069
                 T00391028 =
2017-11-19 21:53 METAR KDXR 200253Z 25007KT 10SM SCT065 BKN085 04/M03 A2972 RMK AO2 SLP064
                 T00391033 51019 =
2017-11-19 20:53 METAR KDXR 200153Z 27008KT 10SM SCT085 04/M04 A2971 RMK AO2 SLP061 T00441039 =
2017-11-19 19:53 METAR KDXR 200053Z 27007KT 10SM CLR 05/M06 A2969 RMK AO2 SLP053 T00501056 =
2017-11-19 18:53 METAR KDXR 192353Z 29015G21KT 10SM FEW050 06/M06 A2966 RMK AO2 SLP044 T00561056
                 10083 20050 53031 =
2017-11-19 17:53 METAR KDXR 192253Z 30010G24KT 260V340 10SM OVC046 06/M03 A2963 RMK AO2 SLP034
                 T00561033 =
2017-11-19 16:53 METAR KDXR 192153Z 29013G30KT 10SM OVC044 06/M04 A2960 RMK AO2 PK WND 28030/2146
                 SLP022 T00561039 =
2017-11-19 15:53 METAR KDXR 192053Z 30016G25KT 280V350 10SM OVC043 06/M03 A2957 RMK AO2 PK WND
                 29027/2009 SLP013 T00611028 53036 =
2017-11-19 14:53 METAR KDXR 191953Z 29014G23KT 10SM BKN043 07/M02 A2954 RMK AO2 PK WND 27032/1908
                 SLP001 T00671022 =
2017-11-19 13:53 METAR KDXR 191853Z 28018G30KT 10SM FEW041 08/M02 A2947 RMK AO2 PK WND 29034/1808
                 SLP979 T00781022 =
2017-11-19 12:53 METAR KDXR 191753Z 29011G23KT 230V330 10SM FEW040 08/M01 A2946 RMK AO2 PK WND
                 27033/1723 SLP976 60002 T00781011 10150 20078 51047 =
2017-11-19 11:53 METAR KDXR 191653Z 28022G34KT 10SM SCT042 08/M01 A2942 RMK AO2 PK WND 26034/1650
                 SLP961 T00831006 =
2017-11-19 10:53 METAR KDXR 191553Z 28015G31KT 10SM BKN038 09/01 A2939 RMK AO2 PK WND 27031/1546
                 SLP953 T00890006 =
2017-11-19 10:00 METAR KDXR 191500Z 27014G26KT 10SM BKN038 10/03 A2933 RMK AO2 PK WND 26026/1459
                 T01000028 =
2017-11-19 09:53 METAR KDXR 191453Z 28015G32KT 10SM BKN029 10/03 A2932 RMK AO2 PK WND 30032/1447
                 SLP928 60002 T01000033 53045 =
2017-11-19 09:22 METAR KDXR 191422Z 27018G30KT 10SM BKN029 OVC036 10/04 A2929 RMK AO2 PK WND
                 27031/1402 PRESRR T01000039 =
2017-11-19 08:53 METAR KDXR 191353Z 25016G26KT 10SM SCT031 BKN042 OVC055 13/07 A2925 RMK AO2 PK
                 WND 29028/1341 RAE1254 PRESRR SLP904 P0000 T01280072 =
2017-11-19 08:08 METAR KDXR 191308Z 23009G19KT 10SM SCT023 BKN034 OVC050 14/11 A2920 RMK AO2
                 RAE1254 P0000 T01440111 =
2017-11-19 07:53 METAR KDXR 191253Z 24013G25KT 10SM -RA BKN022 BKN028 OVC050 14/12 A2920 RMK AO2
                 PK WND 22026/1241 RAE09B32 SLP886 P0002 T01440117 =
2017-11-19 06:53 METAR KDXR 191153Z 21011G19KT 10SM -RA SCT016 BKN021 OVC037 15/12 A2919 RMK AO2
                 RAB06 SLP883 P0003 60012 70036 T01500122 10150 20106 56023 =
2017-11-19 06:05 METAR KDXR 191105Z AUTO 22014G22KT 10SM OVC016 15/12 A2921 RMK AO2 P0001
                 T01500122 =
2017-11-19 05:53 METAR KDXR 191053Z AUTO 21019G29KT 10SM OVC014 15/12 A2921 RMK AO2 PK WND
                 24029/1050 RAE43 SLP891 P0001 T01500122 =
2017-11-19 05:11 METAR KDXR 191011Z AUTO 19013G24KT 9SM -RA BKN014 BKN070 OVC090 14/12 A2924 RMK
                 AO2 P0001 T01390122 =
2017-11-19 04:53 METAR KDXR 190953Z AUTO 21011G19KT 8SM -RA BKN015 BKN050 OVC090 14/12 A2923 RMK
                 AO2 SLP896 P0005 T01390117 =
2017-11-19 04:14 METAR KDXR 190914Z AUTO 21013G20KT 8SM -RA BKN019 OVC080 13/11 A2926 RMK AO2
                 P0001 T01330111 =
2017-11-19 03:53 METAR KDXR 190853Z AUTO 20009G21KT 9SM -RA FEW026 BKN080 OVC100 13/11 A2926 RMK
                 AO2 RAB26 SLP906 P0000 60003 T01330111 58039 =
2017-11-19 02:53 METAR KDXR 190753Z AUTO 18009G15KT 10SM SCT031 BKN050 OVC075 13/11 A2930 RMK AO2
                 RAB0655E49 SLP920 P0003 T01280111 =

Support USWX by starting your Amazon purchase here.